Time;durP1;ratioP1;P1;durP2;ratioP2;P2;SDS_P1;SDS_P2;PMS_P1;PMS_P2;Temp;Humidity;BMP_temperature;BMP_pressure;BME280_temperature;BME280_humidity;BME280_pressure;Samples;Min_cycle;Max_cycle;Signal;HPM_P1;HPM_P2
2021/06/06 00:01:01;;;;;;;18.83;14.23;;;;;;;14.30;98.46;102433.72;10540326;28;20057;-78
2021/06/06 00:06:17;;;;;;;24.77;13.98;;;;;;;14.03;98.75;102401.84;10558123;28;20051;-79
2021/06/06 00:11:29;;;;;;;20.83;14.52;;;;;;;13.93;98.75;102384.88;10550843;28;20115;-77
2021/06/06 00:16:34;;;;;;;23.38;17.33;;;;;;;13.94;99.17;102416.34;10534428;28;20430;-78
2021/06/06 00:21:36;;;;;;;24.63;15.48;;;;;;;13.72;99.01;102389.69;10554491;28;20073;-79
2021/06/06 00:26:37;;;;;;;19.83;14.77;;;;;;;13.94;98.58;102438.09;10559261;28;20043;-80
2021/06/06 00:31:38;;;;;;;22.77;17.70;;;;;;;13.84;98.46;102422.28;10554336;28;20637;-78
2021/06/06 00:36:39;;;;;;;25.27;18.85;;;;;;;13.68;98.62;102396.94;10535583;28;20210;-78
2021/06/06 00:41:41;;;;;;;24.00;17.90;;;;;;;13.43;98.71;102353.50;10558498;28;20523;-79
2021/06/06 00:46:42;;;;;;;25.17;17.70;;;;;;;13.37;99.58;102349.44;10533787;28;20399;-78
2021/06/06 00:51:54;;;;;;;25.90;18.30;;;;;;;13.66;99.99;102394.56;10538083;28;20035;-78
2021/06/06 00:57:14;;;;;;;25.93;17.30;;;;;;;13.60;100.00;102395.16;10546137;28;20032;-78
2021/06/06 01:02:14;;;;;;;23.75;15.80;;;;;;;13.46;100.00;102390.84;10540996;28;20023;-79
2021/06/06 01:07:15;;;;;;;23.17;15.65;;;;;;;13.41;100.00;102401.94;10557342;28;20028;-78
2021/06/06 01:12:29;;;;;;;23.05;15.27;;;;;;;13.24;100.00;102366.81;10543435;28;20031;-78
2021/06/06 01:17:36;;;;;;;22.67;14.57;;;;;;;13.48;100.00;102410.31;10544740;28;20566;-78
2021/06/06 01:22:51;;;;;;;22.45;15.60;;;;;;;13.46;100.00;102409.88;10539928;28;20035;-79
2021/06/06 01:28:17;;;;;;;23.60;16.10;;;;;;;13.47;100.00;102408.72;10550511;28;20417;-78
2021/06/06 01:33:35;;;;;;;27.42;17.40;;;;;;;13.29;100.00;102391.09;10546000;28;20042;-79
2021/06/06 01:38:39;;;;;;;29.98;17.23;;;;;;;12.94;100.00;102348.06;10557520;27;20039;-79
2021/06/06 01:43:46;;;;;;;28.73;18.75;;;;;;;13.27;100.00;102393.31;10542666;28;20425;-79
2021/06/06 01:48:46;;;;;;;26.13;18.00;;;;;;;12.67;100.00;102306.84;10537581;28;20043;-78
2021/06/06 01:53:49;;;;;;;27.70;18.85;;;;;;;13.01;100.00;102364.56;10538599;28;20547;-77
2021/06/06 01:58:53;;;;;;;28.95;19.65;;;;;;;12.37;100.00;102270.19;10547685;28;20039;-78
2021/06/06 02:03:56;;;;;;;26.90;18.50;;;;;;;13.00;100.00;102379.25;10550632;28;20039;-78
2021/06/06 02:08:56;;;;;;;;;;;;;;;13.07;100.00;102395.78;10534628;28;20036;-79
2021/06/06 02:14:08;;;;;;;27.50;18.75;;;;;;;12.73;100.00;102341.94;10533390;28;19989;-78
2021/06/06 02:19:09;;;;;;;29.10;20.00;;;;;;;12.89;100.00;102378.13;10537204;28;20036;-79
2021/06/06 02:24:10;;;;;;;28.63;19.48;;;;;;;12.92;100.00;102388.31;10558520;28;20036;-78
2021/06/06 02:29:27;;;;;;;28.73;19.63;;;;;;;12.64;100.00;102356.38;10534454;28;20042;-78
2021/06/06 02:34:42;;;;;;;25.50;19.27;;;;;;;12.86;100.00;102384.22;10543250;28;20487;-77
2021/06/06 02:39:46;;;;;;;27.27;19.10;;;;;;;12.64;100.00;102350.16;10550219;28;20426;-78
2021/06/06 02:44:50;;;;;;;29.98;18.83;;;;;;;12.86;100.00;102384.22;10541073;28;20060;-79
2021/06/06 02:49:52;;;;;;;29.70;19.15;;;;;;;12.82;100.00;102394.19;10569665;28;20048;-79
2021/06/06 02:55:01;;;;;;;29.13;20.27;;;;;;;12.76;100.00;102380.03;10524728;28;20408;-79
2021/06/06 03:00:23;;;;;;;29.77;18.60;;;;;;;12.59;100.00;102364.72;10550952;28;20589;-79
2021/06/06 03:05:26;;;;;;;28.48;17.92;;;;;;;12.31;100.00;102325.78;10529323;28;20482;-79
2021/06/06 03:10:30;;;;;;;26.13;17.55;;;;;;;12.64;100.00;102378.06;10522130;28;20039;-79
2021/06/06 03:15:37;;;;;;;21.90;16.33;;;;;;;12.30;100.00;102343.16;10499895;28;20046;-78
2021/06/06 03:20:46;;;;;;;25.00;16.52;;;;;;;12.31;100.00;102342.84;10555149;28;20035;-79
2021/06/06 03:25:50;;;;;;;29.52;16.83;;;;;;;12.43;100.00;102358.34;10534723;28;20115;-78
2021/06/06 03:30:54;;;;;;;30.00;16.27;;;;;;;12.27;100.00;102342.72;10533564;28;20032;-79
2021/06/06 03:35:54;;;;;;;24.63;18.00;;;;;;;12.57;100.00;102388.69;10553454;28;20080;-78
2021/06/06 03:40:55;;;;;;;22.77;15.50;;;;;;;12.39;100.00;102360.13;10549488;28;20098;-78
2021/06/06 03:45:55;;;;;;;20.08;15.60;;;;;;;12.56;100.00;102391.72;10550138;28;20147;-79
2021/06/06 03:50:56;;;;;;;19.60;14.68;;;;;;;12.46;100.00;102390.22;10551549;28;20036;-79
2021/06/06 03:55:56;;;;;;;19.63;14.38;;;;;;;12.40;100.00;102378.81;10522869;28;20035;-79
2021/06/06 04:00:57;;;;;;;25.55;15.57;;;;;;;12.32;100.00;102370.75;10558346;28;20024;-79
2021/06/06 04:05:57;;;;;;;22.60;15.48;;;;;;;12.19;100.00;102335.47;10560495;28;20101;-79
2021/06/06 04:11:01;;;;;;;25.02;15.27;;;;;;;12.55;100.00;102390.16;10558005;28;20554;-79
2021/06/06 04:16:02;;;;;;;20.90;14.88;;;;;;;12.26;100.00;102341.13;10558155;28;20127;-78
2021/06/06 04:21:07;;;;;;;20.77;14.93;;;;;;;12.29;100.00;102338.88;10539516;28;20035;-79
2021/06/06 04:26:08;;;;;;;21.48;14.98;;;;;;;12.19;100.00;102330.03;10547773;28;20470;-79
2021/06/06 04:31:09;;;;;;;21.60;14.40;;;;;;;12.49;100.00;102365.16;10549201;28;20028;-80
2021/06/06 04:36:09;;;;;;;20.13;14.73;;;;;;;12.48;100.00;102363.56;10536853;28;20043;-79
2021/06/06 04:41:12;;;;;;;19.38;13.95;;;;;;;12.80;100.00;102401.88;10559889;28;20124;-79
2021/06/06 04:46:16;;;;;;;18.70;12.98;;;;;;;12.84;100.00;102400.03;10546230;28;20047;-79
2021/06/06 04:51:19;;;;;;;17.25;13.07;;;;;;;12.90;100.00;102401.41;10555715;28;20035;-78
2021/06/06 04:56:23;;;;;;;17.95;12.95;;;;;;;12.90;100.00;102379.72;10558597;28;20458;-78
2021/06/06 05:01:24;;;;;;;24.98;13.65;;;;;;;12.76;100.00;102357.53;10543918;28;20050;-79
2021/06/06 05:06:25;;;;;;;19.63;12.93;;;;;;;12.90;100.00;102360.72;10551021;28;20036;-79
2021/06/06 05:11:25;;;;;;;19.60;13.57;;;;;;;13.20;100.00;102382.22;10538078;28;20043;-80
2021/06/06 05:16:26;;;;;;;21.48;11.85;;;;;;;13.33;100.00;102391.97;10552984;28;20392;-79
2021/06/06 05:21:26;;;;;;;22.00;13.38;;;;;;;13.26;100.00;102359.13;10560931;28;20118;-79
2021/06/06 05:26:27;;;;;;;20.70;11.60;;;;;;;13.36;100.00;102358.72;10561124;28;20047;-79
2021/06/06 05:31:27;;;;;;;19.80;11.82;;;;;;;13.39;100.00;102352.59;10547849;28;20376;-79
2021/06/06 05:36:28;;;;;;;20.10;11.98;;;;;;;13.46;100.00;102344.66;10545983;28;20178;-80
2021/06/06 05:41:28;;;;;;;18.02;11.65;;;;;;;13.82;100.00;102391.91;10549833;28;20044;-79
2021/06/06 05:46:29;;;;;;;16.45;9.48;;;;;;;13.88;100.00;102396.00;10533638;28;20061;-80
2021/06/06 05:51:30;;;;;;;12.15;7.13;;;;;;;13.46;99.46;102303.91;10550441;28;20452;-79
2021/06/06 05:56:31;;;;;;;14.80;7.53;;;;;;;14.09;95.04;102395.81;10544923;28;20123;-79
2021/06/06 06:01:31;;;;;;;7.20;4.43;;;;;;;14.15;90.70;102404.50;10537266;28;20041;-79
2021/06/06 06:06:32;;;;;;;5.18;3.92;;;;;;;14.08;88.16;102361.59;10542615;28;20043;-79
2021/06/06 06:11:33;;;;;;;5.47;3.35;;;;;;;14.17;85.38;102364.16;10561742;28;20097;-79
2021/06/06 06:16:38;;;;;;;6.93;3.75;;;;;;;14.51;84.10;102394.59;10559712;28;20035;-79
2021/06/06 06:21:40;;;;;;;6.05;3.80;;;;;;;14.54;83.59;102393.97;10539675;28;20502;-81
2021/06/06 06:26:41;;;;;;;6.25;4.03;;;;;;;14.38;83.50;102364.75;10538776;28;20047;-80
2021/06/06 06:31:42;;;;;;;8.48;5.72;;;;;;;14.68;85.22;102399.00;10544819;28;20104;-81
2021/06/06 06:36:43;;;;;;;7.40;4.75;;;;;;;14.65;84.92;102395.03;10531764;28;20129;-82
2021/06/06 06:41:44;;;;;;;8.52;4.32;;;;;;;14.88;84.94;102397.16;10550641;28;20044;-81
2021/06/06 06:46:44;;;;;;;7.50;4.38;;;;;;;14.66;83.31;102358.50;10553536;28;20048;-80
2021/06/06 06:51:45;;;;;;;6.85;3.80;;;;;;;14.74;83.19;102364.91;10551324;28;20036;-81
2021/06/06 06:56:45;;;;;;;5.57;3.28;;;;;;;15.14;83.63;102383.00;10558483;28;20039;-80
2021/06/06 07:01:46;;;;;;;6.93;2.83;;;;;;;15.03;82.54;102355.53;10552507;28;20141;-80
2021/06/06 07:06:51;;;;;;;7.82;3.30;;;;;;;16.75;77.00;102410.94;10551054;28;20044;-79
2021/06/06 07:11:53;;;;;;;5.90;2.58;;;;;;;18.53;65.95;102368.09;10553929;28;20030;-78
2021/06/06 07:16:53;;;;;;;6.70;3.50;;;;;;;19.51;62.80;102416.22;10558265;28;20377;-79
2021/06/06 07:21:54;;;;;;;5.85;2.85;;;;;;;21.35;55.90;102364.03;10539907;28;20031;-78
2021/06/06 07:26:54;;;;;;;8.27;4.60;;;;;;;23.04;51.06;102358.38;10540148;28;20035;-79
2021/06/06 07:31:56;;;;;;;5.75;2.33;;;;;;;24.20;47.29;102388.97;10520540;28;20430;-78
2021/06/06 07:36:58;;;;;;;;;;;;;;;24.49;45.96;102402.41;10540547;28;20109;-82
2021/06/06 07:41:59;;;;;;;5.28;2.00;;;;;;;24.51;45.63;102405.53;10555600;28;19927;-83
2021/06/06 07:47:00;;;;;;;4.20;2.00;;;;;;;25.26;44.03;102421.69;10532814;28;20460;-81
2021/06/06 07:52:00;;;;;;;4.67;2.30;;;;;;;25.13;43.51;102378.44;10555187;28;20047;-83
2021/06/06 07:57:02;;;;;;;4.70;2.00;;;;;;;25.46;42.56;102384.94;10557326;28;20097;-83
2021/06/06 08:02:03;;;;;;;3.80;1.85;;;;;;;26.07;40.45;102412.19;10536451;28;20040;-82
2021/06/06 08:07:04;;;;;;;5.97;2.10;;;;;;;25.70;40.58;102377.31;10524165;28;20043;-83
2021/06/06 08:12:05;;;;;;;3.38;1.65;;;;;;;25.81;39.68;102410.34;10540302;28;20036;-82
2021/06/06 08:17:05;;;;;;;4.23;2.10;;;;;;;26.44;39.11;102399.06;10552109;28;20044;-82
2021/06/06 08:22:06;;;;;;;2.63;1.73;;;;;;;26.53;38.16;102360.44;10530164;28;20036;-80
2021/06/06 08:27:06;;;;;;;4.23;2.33;;;;;;;26.45;38.53;102397.84;10532467;28;20038;-81
2021/06/06 08:32:08;;;;;;;4.43;2.35;;;;;;;26.19;38.72;102351.75;10533979;28;20346;-80
2021/06/06 08:37:08;;;;;;;4.90;2.23;;;;;;;25.73;39.49;102393.88;10546132;28;20044;-82
2021/06/06 08:42:24;;;;;;;9.05;5.53;;;;;;;25.55;40.73;102393.47;10532046;28;20512;-82
2021/06/06 08:47:27;;;;;;;2.97;1.58;;;;;;;25.18;39.00;102391.78;10559643;28;20040;-81
2021/06/06 08:52:57;;;;;;;2.65;1.40;;;;;;;24.86;38.43;102382.84;10526118;28;20349;-80
2021/06/06 08:58:05;;;;;;;4.50;2.25;;;;;;;24.86;39.46;102371.78;10546976;28;20020;-78
2021/06/06 09:03:13;;;;;;;5.70;1.55;;;;;;;24.67;38.83;102402.91;10543729;28;20024;-81
2021/06/06 09:08:20;;;;;;;3.95;1.48;;;;;;;25.05;38.80;102410.97;10545254;28;20035;-82
2021/06/06 09:13:26;;;;;;;4.35;1.20;;;;;;;24.68;37.77;102371.28;10581173;28;20130;-81
2021/06/06 09:18:28;;;;;;;2.03;1.30;;;;;;;24.91;35.88;102391.88;10529187;28;20110;-81
2021/06/06 09:23:32;;;;;;;2.28;1.20;;;;;;;24.82;36.09;102393.19;10551346;28;20482;-79
2021/06/06 09:28:35;;;;;;;3.70;1.67;;;;;;;24.82;36.39;102362.75;10546857;28;20494;-81
2021/06/06 09:33:42;;;;;;;1.95;1.25;;;;;;;25.13;35.48;102417.94;10568070;28;20116;-76
2021/06/06 09:38:44;;;;;;;4.80;1.65;;;;;;;25.58;35.72;102409.22;10537919;28;20040;-80
2021/06/06 09:43:58;;;;;;;2.17;1.20;;;;;;;25.68;35.15;102375.00;10538278;28;20494;-78
2021/06/06 09:49:15;;;;;;;2.58;1.35;;;;;;;25.98;34.93;102408.44;10563223;28;20040;-79
2021/06/06 09:54:25;;;;;;;4.95;1.60;;;;;;;26.17;33.52;102381.88;10554723;28;20078;-81
2021/06/06 09:59:29;;;;;;;4.07;2.45;;;;;;;26.67;33.49;102405.69;10577177;28;20078;-81
2021/06/06 10:04:32;;;;;;;3.88;1.85;;;;;;;25.95;33.50;102387.91;10565777;28;20436;-82
2021/06/06 10:09:33;;;;;;;3.13;1.13;;;;;;;26.55;32.24;102413.50;10554910;28;20044;-79
2021/06/06 10:15:00;;;;;;;3.22;1.20;;;;;;;26.44;31.36;102396.31;10562934;28;20063;-79
2021/06/06 10:20:14;;;;;;;3.20;1.25;;;;;;;26.99;31.38;102402.09;10560380;28;20385;-81
2021/06/06 10:25:27;;;;;;;2.22;1.20;;;;;;;26.96;30.61;102356.59;10567526;28;20031;-78
2021/06/06 10:30:49;;;;;;;3.60;1.30;;;;;;;27.69;30.62;102402.63;10519968;28;20376;-78
2021/06/06 10:35:50;;;;;;;2.17;1.00;;;;;;;27.59;29.65;102410.03;10532331;28;20040;-78
2021/06/06 10:40:53;;;;;;;5.38;1.80;;;;;;;27.67;28.98;102366.16;10542919;28;20059;-79
2021/06/06 10:45:57;;;;;;;5.82;1.50;;;;;;;26.82;30.25;102343.09;10535805;28;20130;-78
2021/06/06 10:51:30;;;;;;;6.15;1.90;;;;;;;27.32;30.55;102397.28;10560096;28;20033;-79
2021/06/06 10:56:50;;;;;;;2.63;1.65;;;;;;;27.41;31.11;102389.09;10547196;28;20039;-80
2021/06/06 11:01:53;;;;;;;3.40;1.85;;;;;;;27.19;31.68;102377.00;10551080;28;20683;-79
2021/06/06 11:07:02;;;;;;;4.65;1.45;;;;;;;27.59;30.27;102387.81;10520738;28;20073;-80
2021/06/06 11:12:10;;;;;;;5.07;1.50;;;;;;;27.30;31.02;102388.59;10553686;28;20580;-80
2021/06/06 11:17:15;;;;;;;5.80;2.17;;;;;;;27.55;29.92;102381.59;10540116;28;20036;-78
2021/06/06 11:22:30;;;;;;;3.22;1.52;;;;;;;26.96;30.66;102375.22;10535332;28;20417;-79
2021/06/06 11:27:36;;;;;;;4.20;1.60;;;;;;;27.43;29.14;102368.44;10519421;28;21200;-79
2021/06/06 11:32:57;;;;;;;2.35;1.10;;;;;;;27.53;29.43;102378.47;10533030;28;20031;-79
2021/06/06 11:38:19;;;;;;;2.55;1.10;;;;;;;27.37;28.19;102366.19;10543942;28;20053;-79
2021/06/06 11:43:27;;;;;;;2.72;1.35;;;;;;;26.96;29.69;102359.34;10527004;28;20052;-80
2021/06/06 11:48:32;;;;;;;2.85;1.00;;;;;;;27.53;28.22;102367.34;10532228;28;20122;-78
2021/06/06 11:53:40;;;;;;;2.47;1.10;;;;;;;27.52;29.16;102361.03;10544452;28;20035;-80
2021/06/06 11:58:48;;;;;;;3.13;1.50;;;;;;;27.61;28.55;102368.72;10537979;28;20046;-79
2021/06/06 12:03:52;;;;;;;2.80;1.00;;;;;;;28.11;27.43;102361.66;10560150;28;20751;-79
2021/06/06 12:08:57;;;;;;;4.18;1.30;;;;;;;27.73;27.66;102320.72;10550844;28;20032;-79
2021/06/06 12:14:07;;;;;;;2.83;1.13;;;;;;;27.99;27.00;102348.56;10558099;28;20028;-79
2021/06/06 12:19:11;;;;;;;3.25;1.42;;;;;;;27.48;28.22;102337.34;10551760;28;20224;-78
2021/06/06 12:24:18;;;;;;;2.47;1.20;;;;;;;27.73;28.51;102337.41;10516781;28;20027;-80
2021/06/06 12:29:32;;;;;;;3.25;1.40;;;;;;;26.94;29.53;102295.19;10547246;28;20476;-78
2021/06/06 12:34:34;;;;;;;5.68;1.20;;;;;;;27.91;28.06;102341.66;10531977;28;20106;-78
2021/06/06 12:39:39;;;;;;;3.87;1.17;;;;;;;27.32;28.70;102336.19;10519298;28;20177;-78
2021/06/06 12:44:43;;;;;;;2.65;1.08;;;;;;;27.65;27.98;102301.94;10520756;28;20489;-77
2021/06/06 12:50:00;;;;;;;3.70;0.80;;;;;;;27.13;27.89;102317.69;10516305;28;20481;-80
2021/06/06 12:55:12;;;;;;;3.88;0.77;;;;;;;27.48;27.32;102287.38;10506974;28;20041;-79
2021/06/06 13:00:22;;;;;;;5.32;0.85;;;;;;;27.33;27.80;102335.00;10507332;28;20548;-82
2021/06/06 13:05:32;;;;;;;2.42;0.65;;;;;;;27.81;26.60;102338.72;10508084;28;20111;-76
2021/06/06 13:10:41;;;;;;;2.85;1.20;;;;;;;27.55;26.75;102332.38;10519528;28;20402;-76
2021/06/06 13:15:45;;;;;;;3.38;1.75;;;;;;;27.36;27.55;102320.22;10517069;28;20111;-79
2021/06/06 13:20:52;;;;;;;3.72;1.00;;;;;;;27.65;26.37;102324.16;10508319;28;20142;-77
2021/06/06 13:25:53;;;;;;;3.88;0.68;;;;;;;27.77;25.61;102326.94;10516331;28;20115;-77
2021/06/06 13:31:18;;;;;;;3.23;1.00;;;;;;;27.43;26.62;102299.03;10511650;28;20044;-76
2021/06/06 13:36:18;;;;;;;5.03;1.00;;;;;;;27.89;25.95;102332.97;10505174;28;20451;-79
2021/06/06 13:41:20;;;;;;;5.73;1.00;;;;;;;27.40;26.05;102320.13;10521491;28;20139;-80
2021/06/06 13:46:21;;;;;;;3.22;1.00;;;;;;;27.04;27.22;102331.41;10533508;28;20388;-79
2021/06/06 13:51:21;;;;;;;2.00;0.70;;;;;;;27.17;27.88;102340.56;10550140;28;20037;-80
2021/06/06 13:56:22;;;;;;;2.30;0.80;;;;;;;27.39;26.90;102285.25;10543527;28;20131;-80
2021/06/06 14:01:23;;;;;;;2.90;0.60;;;;;;;27.02;27.43;102306.09;10560293;28;20092;-78
2021/06/06 14:06:23;;;;;;;2.63;0.60;;;;;;;27.63;27.07;102321.81;10561734;28;20819;-78
2021/06/06 14:11:30;;;;;;;1.77;0.80;;;;;;;27.69;26.47;102303.38;10538759;28;20032;-76
2021/06/06 14:16:31;;;;;;;1.52;0.73;;;;;;;27.95;26.25;102314.53;10538446;28;20051;-76
2021/06/06 14:21:32;;;;;;;2.67;0.90;;;;;;;27.78;25.37;102297.94;10524203;28;20089;-75
2021/06/06 14:26:35;;;;;;;5.85;0.70;;;;;;;27.55;26.68;102287.16;10524432;28;20034;-75
2021/06/06 14:31:37;;;;;;;3.22;0.70;;;;;;;27.82;26.71;102315.28;10538287;28;20130;-76
2021/06/06 14:36:38;;;;;;;2.15;0.60;;;;;;;27.43;27.29;102312.91;10554093;28;20097;-76
2021/06/06 14:41:40;;;;;;;4.18;0.80;;;;;;;27.90;25.89;102307.53;10530679;28;20094;-77
2021/06/06 14:46:40;;;;;;;2.60;1.05;;;;;;;27.56;27.20;102310.91;10556755;28;20396;-77
2021/06/06 14:51:42;;;;;;;3.93;0.60;;;;;;;27.45;26.15;102304.91;10556807;28;20040;-79
2021/06/06 14:56:44;;;;;;;3.63;0.80;;;;;;;27.45;26.55;102302.16;10540080;28;20123;-77
2021/06/06 15:01:44;;;;;;;4.95;1.52;;;;;;;27.45;26.24;102293.81;10551353;28;20644;-77
2021/06/06 15:06:45;;;;;;;4.17;1.20;;;;;;;27.11;27.27;102264.59;10542187;28;20038;-77
2021/06/06 15:11:45;;;;;;;5.37;1.10;;;;;;;27.29;27.01;102303.78;10539967;28;20028;-76
2021/06/06 15:16:47;;;;;;;3.13;0.80;;;;;;;26.89;27.83;102303.28;10514778;28;20111;-77
2021/06/06 15:21:47;;;;;;;0.93;0.57;;;;;;;26.71;26.30;102237.19;10521130;28;20048;-77
2021/06/06 15:26:48;;;;;;;5.23;1.23;;;;;;;27.12;26.93;102271.72;10531077;28;20388;-78
2021/06/06 15:31:49;;;;;;;2.60;0.93;;;;;;;26.30;27.39;102230.31;10557058;28;20038;-77
2021/06/06 15:36:50;;;;;;;5.30;2.17;;;;;;;26.22;28.15;102262.19;10554979;28;20055;-81
2021/06/06 15:41:50;;;;;;;3.30;1.07;;;;;;;26.67;27.22;102292.75;10530252;28;20048;-77
2021/06/06 15:46:51;;;;;;;1.60;0.95;;;;;;;26.18;28.13;102240.13;10528097;28;20048;-77
2021/06/06 15:51:55;;;;;;;1.50;0.73;;;;;;;26.03;27.16;102184.28;10547722;28;20842;-76
2021/06/06 15:56:55;;;;;;;16.40;5.30;;;;;;;26.29;28.09;102284.19;10551209;28;20421;-77
2021/06/06 16:01:59;;;;;;;5.53;2.50;;;;;;;26.00;28.18;102273.81;10521015;28;20048;-78
2021/06/06 16:07:00;;;;;;;6.07;3.70;;;;;;;26.50;27.91;102280.88;10521033;28;20042;-79
2021/06/06 16:12:00;;;;;;;6.28;3.53;;;;;;;26.06;28.39;102274.84;10546892;28;20031;-80
2021/06/06 16:17:01;;;;;;;10.60;7.25;;;;;;;25.96;28.87;102284.19;10510948;28;20035;-80
2021/06/06 16:22:01;;;;;;;21.90;12.23;;;;;;;25.42;29.81;102245.81;10548749;28;20028;-80
2021/06/06 16:27:02;;;;;;;60.05;33.65;;;;;;;25.79;29.75;102268.75;10571286;28;20036;-80
2021/06/06 16:32:04;;;;;;;4.10;2.33;;;;;;;25.45;30.42;102272.66;10586285;28;20082;-79
2021/06/06 16:37:04;;;;;;;;;;;;;;;25.28;31.03;102263.50;10559671;28;20492;-81
2021/06/06 16:42:05;;;;;;;2.78;1.10;;;;;;;25.46;30.77;102263.13;10555840;28;19920;-79
2021/06/06 16:47:06;;;;;;;2.85;1.70;;;;;;;25.18;31.54;102243.16;10550798;28;20040;-79
2021/06/06 16:52:06;;;;;;;5.25;1.80;;;;;;;24.82;33.11;102232.78;10546665;28;20067;-79
2021/06/06 16:57:07;;;;;;;5.75;3.38;;;;;;;24.99;32.88;102247.44;10539857;28;20028;-81
2021/06/06 17:02:09;;;;;;;5.88;3.67;;;;;;;25.17;33.37;102252.63;10554813;28;20044;-81
2021/06/06 17:07:09;;;;;;;7.70;2.70;;;;;;;25.11;33.60;102262.63;10544448;28;20047;-79
2021/06/06 17:12:10;;;;;;;2.22;1.10;;;;;;;24.76;34.85;102250.28;10560380;28;20111;-79
2021/06/06 17:17:11;;;;;;;5.10;1.40;;;;;;;24.51;35.86;102261.81;10558886;28;20091;-80
2021/06/06 17:22:11;;;;;;;3.40;1.30;;;;;;;24.00;36.11;102223.91;10520371;28;20039;-78
2021/06/06 17:27:11;;;;;;;4.22;1.33;;;;;;;23.88;36.72;102227.28;10556274;28;20550;-79
2021/06/06 17:32:12;;;;;;;624.80;487.92;;;;;;;23.70;37.20;102210.16;10555549;28;20039;-83
2021/06/06 17:37:13;;;;;;;1607.95;818.35;;;;;;;23.90;39.43;102263.53;10556354;28;20041;-79
2021/06/06 17:42:13;;;;;;;113.60;58.22;;;;;;;24.13;38.19;102254.50;10523960;28;20058;-79
2021/06/06 17:47:14;;;;;;;59.58;36.78;;;;;;;23.62;38.76;102188.19;10548885;28;20054;-80
2021/06/06 17:52:14;;;;;;;102.47;50.72;;;;;;;24.29;37.84;102262.13;10555720;28;20479;-77
2021/06/06 17:57:15;;;;;;;376.45;193.75;;;;;;;23.89;38.86;102261.97;10552412;28;20047;-79
2021/06/06 18:02:17;;;;;;;220.07;107.07;;;;;;;23.54;39.94;102230.91;10543716;28;20377;-82
2021/06/06 18:07:18;;;;;;;520.53;404.17;;;;;;;23.58;40.42;102264.72;10531650;28;20039;-80
2021/06/06 18:12:20;;;;;;;99.10;88.53;;;;;;;23.37;40.99;102259.50;10559142;28;20036;-78
2021/06/06 18:17:21;;;;;;;61.80;55.85;;;;;;;23.05;41.57;102249.66;10559475;28;20719;-76
2021/06/06 18:22:22;;;;;;;4.63;2.10;;;;;;;23.31;39.26;102261.16;10546170;28;20036;-83
2021/06/06 18:27:23;;;;;;;2.95;1.67;;;;;;;22.94;39.90;102265.50;10536173;28;20051;-79
2021/06/06 18:32:24;;;;;;;16.70;11.07;;;;;;;22.58;40.70;102249.31;10553376;28;20042;-79
2021/06/06 18:37:29;;;;;;;7.85;5.00;;;;;;;22.38;40.50;102214.06;10543674;28;20043;-82
2021/06/06 18:42:30;;;;;;;42.28;35.10;;;;;;;22.59;40.42;102267.41;10553145;28;20055;-81
2021/06/06 18:47:30;;;;;;;13.57;8.25;;;;;;;22.50;40.28;102258.84;10519031;28;20046;-85
2021/06/06 18:52:31;;;;;;;8.70;5.43;;;;;;;22.33;40.62;102260.56;10539459;28;20031;-78
2021/06/06 18:57:31;;;;;;;5.80;3.38;;;;;;;22.09;41.50;102273.31;10533832;28;20043;-78
2021/06/06 19:02:32;;;;;;;7.13;3.65;;;;;;;21.88;42.33;102280.50;10541079;28;20047;-77
2021/06/06 19:07:34;;;;;;;14.45;4.97;;;;;;;21.71;43.50;102284.16;10526286;28;20153;-80
2021/06/06 19:12:35;;;;;;;5.60;1.10;;;;;;;21.68;43.29;102283.00;10563678;28;20032;-81
2021/06/06 19:17:36;;;;;;;6.65;1.70;;;;;;;21.37;44.66;102268.16;10523588;28;20039;-80
2021/06/06 19:22:37;;;;;;;4.90;1.23;;;;;;;21.38;44.53;102297.25;10562863;28;20032;-80
2021/06/06 19:27:37;;;;;;;4.40;1.40;;;;;;;21.34;44.61;102307.47;10535137;28;20030;-80
2021/06/06 19:32:43;;;;;;;3.20;1.15;;;;;;;21.11;45.89;102305.94;10552781;28;20032;-79
2021/06/06 19:37:43;;;;;;;3.85;1.33;;;;;;;20.55;46.86;102263.59;10516817;28;20036;-80
2021/06/06 19:42:48;;;;;;;2.95;1.10;;;;;;;20.77;47.47;102305.63;10530092;28;20419;-80
2021/06/06 19:47:49;;;;;;;5.25;1.50;;;;;;;20.50;49.39;102310.69;10547294;28;20040;-80
2021/06/06 19:52:50;;;;;;;5.90;2.05;;;;;;;20.46;49.62;102326.41;10555584;28;20061;-81
2021/06/06 19:57:52;;;;;;;4.55;1.27;;;;;;;20.34;49.72;102307.56;10552478;28;20040;-81
2021/06/06 20:02:53;;;;;;;4.68;1.48;;;;;;;20.15;51.22;102323.22;10557588;28;20039;-83
2021/06/06 20:07:54;;;;;;;7.13;2.00;;;;;;;19.82;51.57;102289.44;10534298;28;20035;-78
2021/06/06 20:12:55;;;;;;;5.82;2.13;;;;;;;19.69;52.31;102285.47;10542875;28;20035;-78
2021/06/06 20:17:56;;;;;;;5.22;1.40;;;;;;;19.78;52.23;102335.28;10519017;28;20460;-76
2021/06/06 20:23:01;;;;;;;4.95;1.02;;;;;;;19.65;52.98;102345.00;10533602;28;20043;-77
2021/06/06 20:28:01;;;;;;;7.68;1.98;;;;;;;19.46;53.35;102328.84;10543768;28;20028;-78
2021/06/06 20:33:06;;;;;;;4.40;1.35;;;;;;;19.48;53.04;102351.19;10520987;28;20058;-79
2021/06/06 20:38:10;;;;;;;5.15;1.55;;;;;;;19.29;53.51;102350.28;10543115;28;20032;-81
2021/06/06 20:43:11;;;;;;;3.63;1.55;;;;;;;18.89;54.27;102319.09;10544749;28;20508;-80
2021/06/06 20:48:15;;;;;;;6.03;1.50;;;;;;;19.14;54.11;102359.59;10535498;28;20043;-82
2021/06/06 20:53:16;;;;;;;3.42;1.48;;;;;;;18.90;55.14;102361.75;10546304;28;20046;-82
2021/06/06 20:58:17;;;;;;;4.00;1.70;;;;;;;18.79;55.83;102358.16;10553761;28;20048;-82
2021/06/06 21:03:18;;;;;;;5.03;1.98;;;;;;;18.56;56.47;102342.69;10547294;28;20055;-82
2021/06/06 21:08:21;;;;;;;3.78;1.48;;;;;;;18.58;56.72;102356.78;10508306;28;20051;-81
2021/06/06 21:13:22;;;;;;;5.38;1.40;;;;;;;18.44;57.23;102353.91;10557594;28;20027;-82
2021/06/06 21:18:24;;;;;;;6.88;1.38;;;;;;;18.00;58.25;102316.31;10533932;28;20483;-80
2021/06/06 21:23:30;;;;;;;4.43;1.13;;;;;;;17.90;58.60;102317.00;10550817;28;20043;-82
2021/06/06 21:28:33;;;;;;;3.42;1.13;;;;;;;18.07;59.37;102360.16;10536726;28;20067;-82
2021/06/06 21:33:35;;;;;;;4.07;1.33;;;;;;;17.94;60.22;102361.56;10551918;28;20115;-82
2021/06/06 21:38:37;;;;;;;10.45;2.35;;;;;;;17.61;60.84;102326.75;10557359;28;20074;-82
2021/06/06 21:43:37;;;;;;;2.87;1.10;;;;;;;17.77;61.73;102373.06;10529874;28;20040;-82
2021/06/06 21:48:38;;;;;;;3.15;1.30;;;;;;;17.40;62.12;102316.31;10536119;28;20054;-83
2021/06/06 21:53:41;;;;;;;3.08;1.00;;;;;;;17.23;62.67;102307.50;10534474;28;20043;-82
2021/06/06 21:58:42;;;;;;;4.40;1.75;;;;;;;17.51;63.13;102361.00;10536608;28;20135;-82
2021/06/06 22:03:43;;;;;;;2.95;1.27;;;;;;;17.15;63.32;102322.25;10553104;28;20039;-82
2021/06/06 22:08:44;;;;;;;4.88;1.63;;;;;;;17.11;63.76;102332.31;10536655;28;20487;-83
2021/06/06 22:13:45;;;;;;;3.97;1.40;;;;;;;17.25;64.73;102359.84;10535665;28;20032;-84
2021/06/06 22:19:01;;;;;;;5.22;1.20;;;;;;;17.22;65.29;102366.06;10535545;28;20091;-81
2021/06/06 22:24:39;;;;;;;6.60;1.60;;;;;;;17.11;65.46;102376.03;10551011;28;20037;-81
2021/06/06 22:30:18;;;;;;;2.65;1.20;;;;;;;17.05;65.88;102382.94;10557213;28;20111;-85
2021/06/06 22:35:56;;;;;;;4.05;1.63;;;;;;;16.96;66.43;102375.03;10533062;28;20583;-85
2021/06/06 22:41:34;;;;;;;5.30;1.65;;;;;;;16.86;66.64;102370.97;10550920;28;20035;-85
2021/06/06 22:47:12;;;;;;;3.50;1.60;;;;;;;16.75;67.57;102375.44;10555954;28;20071;-85
2021/06/06 22:52:50;;;;;;;3.80;1.55;;;;;;;16.55;68.74;102371.16;10547530;28;20051;-85
2021/06/06 22:58:30;;;;;;;4.88;1.80;;;;;;;16.37;69.50;102379.84;10545753;28;20043;-84
2021/06/06 23:04:08;;;;;;;5.55;2.38;;;;;;;16.28;69.35;102368.34;10552825;28;20035;-83
2021/06/06 23:09:46;;;;;;;4.03;1.67;;;;;;;16.24;70.23;102378.41;10555408;28;20040;-85